createdAt,value
2023-01-19T00:01:05.900Z,68.39
2023-01-19T00:06:07.947Z,67.74
2023-01-19T00:11:09.323Z,68.41
2023-01-19T00:16:11.240Z,68.51
2023-01-19T00:21:14.720Z,68.17
2023-01-19T00:26:16.553Z,68.80
2023-01-19T00:31:20.732Z,69.33
2023-01-19T00:36:22.227Z,69.30
2023-01-19T00:41:44.054Z,69.14
2023-01-19T00:46:45.453Z,69.78
2023-01-19T00:51:46.818Z,69.71
2023-01-19T00:56:48.334Z,69.30
2023-01-19T01:01:49.756Z,69.25
2023-01-19T01:06:51.204Z,69.76
2023-01-19T01:11:52.554Z,69.05
2023-01-19T01:16:54.994Z,69.26
2023-01-19T01:21:56.504Z,69.60
2023-01-19T01:26:57.927Z,69.69
2023-01-19T01:31:59.473Z,70.12
2023-01-19T01:37:00.882Z,70.80
2023-01-19T01:42:03.241Z,71.31
2023-01-19T01:47:04.745Z,71.17
2023-01-19T01:52:06.328Z,71.79
2023-01-19T01:57:12.289Z,72.34
2023-01-19T02:02:41.471Z,72.88
2023-01-19T02:08:24.696Z,73.60
2023-01-19T02:13:26.952Z,73.65
2023-01-19T02:18:30.567Z,74.32
2023-01-19T02:23:46.470Z,74.02
2023-01-19T02:29:02.883Z,74.00
2023-01-19T02:34:05.922Z,74.39
2023-01-19T02:39:09.672Z,74.23
2023-01-19T02:44:12.594Z,73.81
2023-01-19T02:49:14.154Z,73.06
2023-01-19T02:54:30.673Z,73.93
2023-01-19T02:59:43.967Z,74.04
2023-01-19T03:05:08.345Z,74.80
2023-01-19T03:10:33.122Z,75.06
2023-01-19T03:15:48.842Z,74.39
2023-01-19T03:20:55.141Z,74.33
2023-01-19T03:25:58.998Z,74.42
2023-01-19T03:31:10.932Z,74.42
2023-01-19T03:36:35.888Z,75.29
2023-01-19T03:41:40.855Z,76.20
2023-01-19T03:46:42.968Z,75.70
2023-01-19T03:51:44.633Z,76.55
2023-01-19T03:56:46.040Z,76.76
2023-01-19T04:01:48.207Z,76.86
2023-01-19T04:06:49.674Z,77.33
2023-01-19T04:11:51.451Z,77.48
2023-01-19T04:16:52.896Z,77.30
2023-01-19T04:21:56.785Z,76.88
2023-01-19T04:26:58.119Z,76.95
2023-01-19T04:31:59.445Z,77.21
2023-01-19T04:37:00.973Z,77.84
2023-01-19T04:42:02.355Z,77.64
2023-01-19T04:47:03.876Z,78.95
2023-01-19T04:52:06.142Z,78.61
2023-01-19T04:57:07.514Z,78.58
2023-01-19T05:02:08.957Z,78.88
2023-01-19T05:07:10.285Z,80.03
2023-01-19T05:12:12.236Z,80.03
2023-01-19T05:17:13.767Z,80.73
2023-01-19T05:22:15.591Z,80.56
2023-01-19T05:27:16.953Z,80.83
2023-01-19T05:32:18.519Z,80.58
2023-01-19T05:37:20.094Z,81.17
2023-01-19T05:42:21.607Z,81.55
2023-01-19T05:47:23.330Z,82.11
2023-01-19T05:52:27.579Z,82.06
2023-01-19T05:57:28.904Z,82.07
2023-01-19T06:02:30.301Z,82.12
2023-01-19T06:07:32.184Z,81.76
2023-01-19T06:12:33.773Z,81.31
2023-01-19T06:17:35.432Z,80.21
2023-01-19T06:22:36.795Z,80.87
2023-01-19T06:27:39.745Z,80.58
2023-01-19T06:32:41.188Z,80.54
2023-01-19T06:37:42.567Z,80.44
2023-01-19T06:42:43.958Z,80.33
2023-01-19T06:47:48.018Z,80.09
2023-01-19T06:52:51.223Z,80.50
2023-01-19T06:58:01.338Z,81.02
2023-01-19T07:03:03.426Z,81.39
2023-01-19T07:08:05.385Z,81.29
2023-01-19T07:13:09.445Z,81.45
2023-01-19T07:18:11.262Z,81.41
2023-01-19T07:23:12.721Z,80.74
2023-01-19T07:28:15.919Z,80.63
2023-01-19T07:33:17.315Z,81.00
2023-01-19T07:38:19.422Z,80.95
2023-01-19T07:43:20.945Z,80.27
2023-01-19T07:48:22.412Z,79.97
2023-01-19T07:53:23.850Z,79.52
2023-01-19T07:58:26.392Z,79.55
2023-01-19T08:03:27.735Z,80.05
2023-01-19T08:08:30.434Z,79.49
2023-01-19T08:13:31.932Z,79.47
2023-01-19T08:18:33.302Z,78.92
2023-01-19T08:23:34.910Z,78.92
2023-01-19T08:28:36.304Z,80.66
2023-01-19T08:33:37.659Z,79.15
2023-01-19T08:38:43.439Z,78.43
2023-01-19T08:43:45.520Z,78.27
2023-01-19T08:48:48.338Z,78.46
2023-01-19T08:53:50.212Z,77.76
2023-01-19T08:59:07.610Z,82.29
2023-01-19T09:04:09.878Z,77.20
2023-01-19T09:09:11.319Z,75.44
2023-01-19T09:14:12.966Z,74.44
2023-01-19T09:19:14.350Z,74.29
2023-01-19T09:24:15.714Z,74.17
2023-01-19T09:29:17.244Z,73.46
2023-01-19T09:34:18.588Z,72.23
2023-01-19T09:39:20.019Z,73.16
2023-01-19T09:44:33.833Z,71.11
2023-01-19T09:49:41.044Z,69.99
2023-01-19T09:54:52.984Z,68.94
2023-01-19T09:59:59.484Z,67.41
2023-01-19T10:05:14.524Z,65.22
2023-01-19T10:10:27.919Z,64.10
2023-01-19T10:15:41.985Z,64.32
2023-01-19T10:20:59.863Z,65.41
2023-01-19T10:26:08.390Z,67.11
2023-01-19T10:31:12.099Z,68.60
2023-01-19T10:36:24.273Z,69.48
2023-01-19T10:41:31.736Z,70.15
2023-01-19T10:46:42.223Z,71.30
2023-01-19T10:51:48.730Z,72.07
2023-01-19T10:57:03.466Z,72.92
2023-01-19T11:02:27.269Z,74.27
2023-01-19T11:07:31.078Z,74.41
2023-01-19T11:12:32.467Z,75.47
2023-01-19T11:17:33.957Z,75.64
2023-01-19T11:22:35.481Z,76.24
2023-01-19T11:27:37.774Z,76.19
2023-01-19T11:32:41.139Z,75.30
2023-01-19T11:37:43.168Z,73.89
2023-01-19T11:42:44.775Z,73.24
2023-01-19T11:47:50.250Z,72.40
2023-01-19T11:52:59.071Z,72.45
2023-01-19T11:58:02.496Z,72.08
2023-01-19T12:03:30.597Z,73.89
2023-01-19T12:08:39.531Z,74.41
2023-01-19T12:13:43.910Z,74.27
2023-01-19T12:18:51.666Z,74.22
2023-01-19T12:24:04.864Z,74.61
2023-01-19T12:29:15.279Z,76.10
2023-01-19T12:34:25.974Z,77.03
2023-01-19T12:39:27.481Z,78.65
2023-01-19T12:44:31.002Z,78.89
2023-01-19T12:49:35.491Z,79.43
2023-01-19T12:54:40.093Z,78.57
2023-01-19T12:59:41.435Z,79.59
2023-01-19T13:05:17.740Z,79.96
2023-01-19T13:11:10.689Z,80.17
2023-01-19T13:16:17.952Z,80.48
2023-01-19T13:21:44.630Z,82.08
2023-01-19T13:26:49.129Z,83.16
2023-01-19T13:31:53.551Z,83.61
2023-01-19T13:36:56.954Z,84.03
2023-01-19T13:42:02.691Z,84.89
2023-01-19T13:47:08.068Z,84.58
2023-01-19T13:52:24.288Z,84.79
2023-01-19T13:57:28.726Z,84.57
2023-01-19T14:02:30.259Z,85.53
2023-01-19T14:07:32.039Z,84.86
2023-01-19T14:12:33.362Z,85.09
2023-01-19T14:17:34.693Z,85.60
2023-01-19T14:22:41.576Z,85.09
2023-01-19T14:27:42.970Z,85.73
2023-01-19T14:32:47.736Z,85.69
2023-01-19T14:37:50.953Z,86.21
2023-01-19T14:42:55.304Z,86.94
2023-01-19T14:47:59.732Z,87.28
2023-01-19T14:53:04.362Z,88.50
2023-01-19T14:58:11.819Z,88.84
2023-01-19T15:03:13.285Z,89.45
2023-01-19T15:08:33.002Z,89.07
2023-01-19T15:13:34.473Z,89.54
2023-01-19T15:18:36.172Z,88.48
2023-01-19T15:23:37.492Z,89.58
2023-01-19T15:28:38.780Z,89.95
2023-01-19T15:33:40.656Z,90.18
2023-01-19T15:38:42.618Z,90.78
2023-01-19T15:43:44.051Z,91.25
2023-01-19T15:48:45.451Z,90.46
2023-01-19T15:53:47.699Z,89.87
2023-01-19T15:58:49.187Z,90.29
2023-01-19T16:03:52.063Z,90.65
2023-01-19T16:08:59.116Z,90.52
2023-01-19T16:14:01.256Z,90.42
2023-01-19T16:19:02.628Z,90.34
2023-01-19T16:24:04.156Z,89.58
2023-01-19T16:29:08.565Z,90.28
2023-01-19T16:34:10.171Z,90.33
2023-01-19T16:39:13.793Z,90.77
2023-01-19T16:44:16.342Z,90.51
2023-01-19T16:49:20.068Z,89.68
2023-01-19T16:54:25.849Z,89.93
2023-01-19T16:59:29.101Z,90.64
2023-01-19T17:04:30.806Z,90.11
2023-01-19T17:09:32.129Z,90.26
2023-01-19T17:14:33.493Z,89.38
2023-01-19T17:19:35.353Z,89.71
2023-01-19T17:24:36.735Z,90.52
2023-01-19T17:29:38.135Z,90.92
2023-01-19T17:34:39.445Z,90.66
2023-01-19T17:39:40.916Z,91.15
2023-01-19T17:44:42.371Z,90.52
2023-01-19T17:49:43.793Z,90.81
2023-01-19T17:54:45.185Z,90.25
2023-01-19T17:59:47.800Z,90.41
2023-01-19T18:04:49.265Z,90.19
2023-01-19T18:09:51.692Z,90.60
2023-01-19T18:14:52.998Z,89.36
2023-01-19T18:19:54.720Z,89.73
2023-01-19T18:24:56.156Z,89.39
2023-01-19T18:29:57.534Z,88.42
2023-01-19T18:34:58.955Z,88.49
2023-01-19T18:40:04.173Z,88.19
2023-01-19T18:45:05.777Z,88.17
2023-01-19T18:50:07.828Z,88.13
2023-01-19T18:55:09.545Z,88.76
2023-01-19T19:00:11.813Z,88.42
2023-01-19T19:05:13.404Z,87.76
2023-01-19T19:10:14.998Z,87.73
2023-01-19T19:15:16.696Z,88.71
2023-01-19T19:20:19.419Z,89.10
2023-01-19T19:25:21.092Z,88.72
2023-01-19T19:30:22.553Z,88.75
2023-01-19T19:35:24.187Z,89.03
2023-01-19T19:40:26.870Z,88.71
2023-01-19T19:45:28.253Z,88.21
2023-01-19T19:50:29.570Z,87.84
2023-01-19T19:55:30.964Z,88.12
2023-01-19T20:00:32.363Z,87.32
2023-01-19T20:05:35.617Z,87.43
2023-01-19T20:10:37.789Z,87.31
2023-01-19T20:15:39.482Z,87.42
2023-01-19T20:20:41.051Z,87.45
2023-01-19T20:25:42.407Z,87.48
2023-01-19T20:30:43.816Z,87.69
2023-01-19T20:35:45.119Z,87.57
2023-01-19T20:40:46.445Z,88.02
2023-01-19T20:45:48.375Z,88.84
2023-01-19T20:50:49.953Z,89.18
2023-01-19T20:55:51.251Z,89.11
2023-01-19T21:00:52.741Z,89.03
2023-01-19T21:05:54.138Z,89.00
2023-01-19T21:10:56.805Z,89.14
2023-01-19T21:15:59.577Z,89.20
2023-01-19T21:21:01.003Z,89.34
2023-01-19T21:26:02.469Z,89.87
2023-01-19T21:31:12.873Z,90.09
2023-01-19T21:36:14.210Z,89.97
2023-01-19T21:41:16.263Z,89.64
2023-01-19T21:46:29.126Z,89.44
2023-01-19T21:51:34.696Z,88.97
2023-01-19T21:56:38.353Z,89.02
2023-01-19T22:01:39.831Z,89.40
2023-01-19T22:06:41.347Z,89.38
2023-01-19T22:11:42.811Z,89.91
2023-01-19T22:16:44.159Z,89.18
2023-01-19T22:21:45.524Z,89.87
2023-01-19T22:26:50.038Z,90.06
2023-01-19T22:31:52.384Z,90.04
2023-01-19T22:36:53.855Z,89.39
2023-01-19T22:41:55.745Z,89.52
2023-01-19T22:46:57.174Z,90.31
2023-01-19T22:51:58.559Z,90.29
2023-01-19T22:57:00.004Z,90.22
2023-01-19T23:02:01.564Z,89.76
2023-01-19T23:07:02.988Z,90.25
2023-01-19T23:12:04.629Z,90.20
2023-01-19T23:17:06.192Z,89.99
2023-01-19T23:22:07.643Z,90.35
2023-01-19T23:27:09.406Z,89.86
2023-01-19T23:32:10.740Z,89.90
2023-01-19T23:37:12.362Z,90.14
2023-01-19T23:42:13.733Z,89.70
2023-01-19T23:47:15.086Z,89.18
2023-01-19T23:52:16.418Z,88.76
2023-01-19T23:57:17.901Z,88.85
